TRUSK53 EGVN-EGVN

Flight info

Callsign TRUSK53
Flight time 0h 7m
Altitude 3000
Route OPR LFA2 D123 D125 D128
Aircraft A400/H-SDGHIRTUWXYZ/HB1

Departure

Time 2026-05-06 21:04
Airport RAF Brize Norton (EGVN)

Arrival

Time 2026-05-06 21:12
Airport RAF Brize Norton (EGVN)
Time Latitude Longitude Altitude Speed Heading
2026-05-06 21:04 51.52580 -1.78364 1236 ft 271 kts 328°
2026-05-06 21:04 51.54343 -1.79016 1424 ft 266 kts 10°
2026-05-06 21:04 51.55930 -1.77646 1762 ft 260 kts 43°
2026-05-06 21:05 51.57284 -1.75708 2593 ft 263 kts 40°
2026-05-06 21:05 51.58715 -1.73809 3211 ft 275 kts 39°
2026-05-06 21:05 51.60207 -1.71859 3251 ft 275 kts 38°
2026-05-06 21:05 51.61121 -1.70458 3240 ft 275 kts 52°
2026-05-06 21:06 51.62397 -1.66868 3300 ft 276 kts 59°
2026-05-06 21:06 51.65800 -1.59728 3323 ft 275 kts 42°
2026-05-06 21:07 51.67432 -1.56560 3337 ft 273 kts 45°
2026-05-06 21:07 51.68431 -1.55483 3361 ft 254 kts 18°
2026-05-06 21:07 51.70098 -1.55489 3165 ft 242 kts 339°
2026-05-06 21:07 51.71302 -1.57363 2495 ft 253 kts 295°
2026-05-06 21:08 51.71641 -1.60183 1916 ft 258 kts 278°
2026-05-06 21:08 51.72076 -1.62870 1810 ft 240 kts 313°
2026-05-06 21:08 51.73878 -1.63822 2111 ft 235 kts 18°
2026-05-06 21:08 51.75044 -1.62105 1597 ft 237 kts 71°
2026-05-06 21:09 51.75203 -1.59439 1074 ft 236 kts 85°
2026-05-06 21:09 51.74786 -1.57073 1448 ft 215 kts 131°
2026-05-06 21:09 51.73531 -1.56214 1701 ft 192 kts 184°
2026-05-06 21:09 51.72500 -1.57228 1752 ft 171 kts 245°
2026-05-06 21:10 51.72099 -1.58983 1776 ft 166 kts 251°
2026-05-06 21:10 51.71713 -1.60694 1805 ft 153 kts 252°
2026-05-06 21:10 51.71722 -1.62252 1683 ft 133 kts 309°
2026-05-06 21:10 51.72487 -1.62672 1250 ft 131 kts 18°
2026-05-06 21:11 51.73361 -1.62289 964 ft 129 kts 17°
2026-05-06 21:11 51.74162 -1.61673 652 ft 126 kts 39°
2026-05-06 21:11 51.74589 -1.60482 369 ft 126 kts 72°
2026-05-06 21:11 51.74840 -1.59146 278 ft 112 kts 73°
2026-05-06 21:12 51.75002 -1.58301 275 ft 38 kts 72°
2026-05-06 21:12 51.75074 -1.58101 274 ft 13 kts 23°
2026-05-06 21:12 51.75154 -1.58044 274 ft 12 kts 26°
2026-05-06 21:12 51.75233 -1.57978 274 ft 13 kts 27°
2026-05-06 21:13 51.75314 -1.57910 277 ft 13 kts 28°
2026-05-06 21:13 51.75395 -1.57840 274 ft 13 kts 28°
2026-05-06 21:13 51.75477 -1.57769 276 ft 13 kts 28°
2026-05-06 21:13 51.75547 -1.57695 273 ft 10 kts 54°
2026-05-06 21:14 51.75537 -1.57597 277 ft 4 kts 117°
2026-05-06 21:14 51.75531 -1.57580 275 ft 0 kts 117°